Batumi International Airport
UGSB : rendu visible

Aérodrome :











RETROUVEZ-NOUS SUR...

 
LOGIN :

S'inscrire | Disclaimer

   EN    FR    IT 

 









Légende :    VFR   VFR Marginal   IFR   IFR Intensif   IFR Très Intensif
Visi : 
Plafond : 
>= 8 km
>= 3000ft
5 à 8 km
1000 à 3000 ft
1500m à 5 km
500 à 1000 ft
800 à 1500m
200 à 500 ft
< 800m
< 200 ft
Symboles :   Orages  Brouillard  Fortes neiges  Fortes précipitations  Vent > 20 kt







- Altitude de l'aérodrome : 105 ft
- Code IATA : BUS


UGSB - Batumi International

DERNIER METAR :
  • 302300Z 14008KT 9999 SCT026 BKN059 15/13 Q1025 R13/29//55 NOSIG

METARs EXPIRÉS :
  • 302230Z 13008KT 9999 SCT025 BKN059 15/13 Q1025 R13/29//55 NOSIG
  • 302200Z 14008KT 9999 FEW016 BKN025 15/13 Q1026 R13/29//55 NOSIG
  • 302130Z AUTO 14007KT 9999 -SHRA FEW016 SCT018 OVC032 15/13 Q1026 R13/29//55 NOSIG
  • 302100Z AUTO 16006KT 9999 FEW017 SCT040 OVC065 15/13 Q1026 R13/29//55 NOSIG

TAF TAF UGSB
Valide du 01 à 00h jusqu'au 02 à 00h UTC


302300Z 0100/0124 13017KT 9999 SCT023 BKN040 TX18/0111Z TN14/0101Z
TEMPO 0100/0106 RA
BECMG 0106/0108 27010KT
TEMPO 0106/0118 SHRA OVC018CB
FIR UGGG / Asie



MET'MAP, la Météo Aéronautique d'un coup d'oeil ! - Copyright ORBIFLY Décembre 2007 - Disclaimer

ORBIFLY MET'MAP TEAM :

Programmation & Développement : Alexandra Zaïnal
Conception & Développement : Baudouin d'Aumeries
Co-Programmation & Développement : Marc-Olivier Méhu
Soutien technique & logistique : Manuel Goepfert

Contact : metmap@orbifly.com




SOURCES & CREDITS :

   NOAA       Earth
Advisory